createdAt,value
2023-01-23T00:01:49.509Z,-0.93
2023-01-23T00:04:18.388Z,-0.83
2023-01-23T00:06:47.841Z,-0.79
2023-01-23T00:09:16.306Z,-0.77
2023-01-23T00:11:44.524Z,-0.80
2023-01-23T00:14:13.540Z,-0.95
2023-01-23T00:16:42.325Z,-0.87
2023-01-23T00:19:14.971Z,-0.88
2023-01-23T00:21:43.396Z,-0.80
2023-01-23T00:24:14.437Z,-0.86
2023-01-23T00:26:43.078Z,-0.81
2023-01-23T00:29:11.260Z,-1.00
2023-01-23T00:31:41.282Z,-0.84
2023-01-23T00:34:15.720Z,-0.91
2023-01-23T00:36:46.178Z,-0.96
2023-01-23T00:39:19.447Z,-0.83
2023-01-23T00:41:50.081Z,-1.01
2023-01-23T00:44:20.401Z,-0.94
2023-01-23T00:46:50.852Z,-0.87
2023-01-23T00:49:21.212Z,-1.02
2023-01-23T00:51:53.524Z,-1.06
2023-01-23T00:54:22.219Z,-1.05
2023-01-23T00:56:50.691Z,-1.00
2023-01-23T00:59:18.990Z,-0.99
2023-01-23T01:01:47.431Z,-0.98
2023-01-23T01:04:16.276Z,-0.88
2023-01-23T01:06:47.262Z,-0.89
2023-01-23T01:09:15.967Z,-1.03
2023-01-23T01:11:46.300Z,-0.93
2023-01-23T01:14:16.494Z,-1.03
2023-01-23T01:16:47.194Z,-0.96
2023-01-23T01:19:17.577Z,-0.99
2023-01-23T01:21:47.549Z,-0.91
2023-01-23T01:24:16.445Z,-0.94
2023-01-23T01:26:46.064Z,-0.92
2023-01-23T01:29:14.313Z,-0.94
2023-01-23T01:31:42.766Z,-1.02
2023-01-23T01:34:11.552Z,-0.81
2023-01-23T01:36:40.223Z,-0.88
2023-01-23T01:39:11.244Z,-0.88
2023-01-23T01:41:42.396Z,-0.91
2023-01-23T01:44:16.422Z,-0.91
2023-01-23T01:46:46.164Z,-0.81
2023-01-23T01:49:18.899Z,-0.82
2023-01-23T01:51:53.588Z,-0.89
2023-01-23T01:54:31.107Z,-0.94
2023-01-23T01:57:04.713Z,-0.87
2023-01-23T01:59:38.287Z,-0.97
2023-01-23T02:02:11.773Z,-0.81
2023-01-23T02:04:45.224Z,-0.86
2023-01-23T02:07:24.453Z,-0.81
2023-01-23T02:09:56.328Z,-0.89
2023-01-23T02:12:27.462Z,-0.87
2023-01-23T02:14:57.155Z,-0.93
2023-01-23T02:17:27.595Z,-0.90
2023-01-23T02:20:04.067Z,-0.89
2023-01-23T02:22:45.892Z,-0.84
2023-01-23T02:25:28.016Z,-0.83
2023-01-23T02:27:59.836Z,-0.87
2023-01-23T02:30:30.374Z,-0.93
2023-01-23T02:33:09.755Z,-0.85
2023-01-23T02:35:39.391Z,-0.83
2023-01-23T02:38:09.920Z,-0.91
2023-01-23T02:40:40.147Z,-1.01
2023-01-23T02:43:14.954Z,-0.90
2023-01-23T02:45:44.226Z,-0.77
2023-01-23T02:48:12.883Z,-0.86
2023-01-23T02:50:42.080Z,-0.92
2023-01-23T02:53:11.044Z,-0.92
2023-01-23T02:55:43.662Z,-0.84
2023-01-23T02:58:31.200Z,-0.82
2023-01-23T03:01:00.790Z,-0.78
2023-01-23T03:03:31.132Z,-0.78
2023-01-23T03:06:03.411Z,-0.84
2023-01-23T03:08:36.858Z,-0.86
2023-01-23T03:11:06.191Z,-0.83
2023-01-23T03:13:36.963Z,-0.79
2023-01-23T03:16:07.299Z,-0.84
2023-01-23T03:18:52.869Z,-0.81
2023-01-23T03:21:24.493Z,-0.88
2023-01-23T03:23:53.092Z,-0.78
2023-01-23T03:26:21.868Z,-0.82
2023-01-23T03:29:08.942Z,-0.98
2023-01-23T03:31:38.530Z,-0.93
2023-01-23T03:34:07.723Z,-0.98
2023-01-23T03:36:37.546Z,-0.81
2023-01-23T03:39:24.354Z,-0.81
2023-01-23T03:41:54.515Z,-0.90
2023-01-23T03:44:27.835Z,-0.83
2023-01-23T03:46:57.759Z,-0.87
2023-01-23T03:49:28.392Z,-0.92
2023-01-23T03:51:56.842Z,-0.83
2023-01-23T03:54:26.696Z,-0.89
2023-01-23T03:56:55.571Z,-0.91
2023-01-23T03:59:26.326Z,-0.82
2023-01-23T04:01:55.880Z,-0.81
2023-01-23T04:04:24.325Z,-0.84
2023-01-23T04:06:55.284Z,-0.83
2023-01-23T04:09:27.892Z,-0.77
2023-01-23T04:11:58.214Z,-0.77
2023-01-23T04:14:37.862Z,-0.75
2023-01-23T04:17:08.078Z,-0.74
2023-01-23T04:19:37.347Z,-0.79
2023-01-23T04:22:06.458Z,-0.75
2023-01-23T04:24:35.352Z,-0.90
2023-01-23T04:27:03.877Z,-0.96
2023-01-23T04:29:35.685Z,-0.81
2023-01-23T04:32:04.896Z,-0.88
2023-01-23T04:34:33.612Z,-0.78
2023-01-23T04:37:04.832Z,-0.80
2023-01-23T04:39:34.129Z,-0.77
2023-01-23T04:42:02.438Z,-0.78
2023-01-23T04:44:30.931Z,-0.84
2023-01-23T04:47:01.856Z,-0.93
2023-01-23T04:49:30.159Z,-0.82
2023-01-23T04:51:59.270Z,-0.79
2023-01-23T04:54:27.708Z,-0.79
2023-01-23T04:56:57.453Z,-0.83
2023-01-23T04:59:25.937Z,-0.87
2023-01-23T05:01:54.596Z,-0.81
2023-01-23T05:04:26.164Z,-0.83
2023-01-23T05:06:54.959Z,-0.84
2023-01-23T05:09:24.630Z,-0.85
2023-01-23T05:11:53.143Z,-0.78
2023-01-23T05:14:22.433Z,-0.82
2023-01-23T05:16:51.526Z,-0.81
2023-01-23T05:19:20.305Z,-0.86
2023-01-23T05:21:52.623Z,-0.92
2023-01-23T05:24:21.209Z,-0.91
2023-01-23T05:26:50.034Z,-0.81
2023-01-23T05:29:19.329Z,-0.89
2023-01-23T05:31:47.725Z,-0.94
2023-01-23T05:34:16.203Z,-0.82
2023-01-23T05:36:44.296Z,-0.90
2023-01-23T05:39:15.847Z,-1.01
2023-01-23T05:41:44.421Z,-0.87
2023-01-23T05:44:14.476Z,-0.87
2023-01-23T05:46:42.969Z,-0.90
2023-01-23T05:49:13.068Z,-0.87
2023-01-23T05:51:43.490Z,-0.86
2023-01-23T05:54:12.576Z,-0.98
2023-01-23T05:56:44.546Z,-0.98
2023-01-23T05:59:13.665Z,-0.81
2023-01-23T06:01:43.440Z,-0.86
2023-01-23T06:04:14.312Z,-0.86
2023-01-23T06:06:44.106Z,-0.94
2023-01-23T06:09:14.488Z,-0.92
2023-01-23T06:11:44.093Z,-0.88
2023-01-23T06:14:12.567Z,-0.99
2023-01-23T06:16:42.558Z,-0.85
2023-01-23T06:19:11.809Z,-0.85
2023-01-23T06:21:41.275Z,-0.95
2023-01-23T06:24:10.158Z,-0.90
2023-01-23T06:26:38.759Z,-0.82
2023-01-23T06:29:09.203Z,-0.81
2023-01-23T06:31:41.171Z,-0.92
2023-01-23T06:34:10.932Z,-0.88
2023-01-23T06:36:40.840Z,-0.91
2023-01-23T06:39:09.902Z,-0.77
2023-01-23T06:41:38.778Z,-0.86
2023-01-23T06:44:09.502Z,-0.85
2023-01-23T06:46:38.376Z,-0.90
2023-01-23T06:49:09.454Z,-1.07
2023-01-23T06:51:37.957Z,-0.86
2023-01-23T06:54:07.065Z,-0.90
2023-01-23T06:56:36.072Z,-0.94
2023-01-23T06:59:05.391Z,-0.77
2023-01-23T07:01:35.645Z,-0.86
2023-01-23T07:04:04.870Z,-0.85
2023-01-23T07:06:33.453Z,-0.83
2023-01-23T07:09:02.507Z,-0.87
2023-01-23T07:11:31.182Z,-0.83
2023-01-23T07:13:59.955Z,-0.72
2023-01-23T07:16:29.267Z,-0.78
2023-01-23T07:19:00.595Z,-0.74
2023-01-23T07:21:29.359Z,-0.72
2023-01-23T07:23:59.108Z,-0.66
2023-01-23T07:26:28.342Z,-0.76
2023-01-23T07:28:57.173Z,-0.83
2023-01-23T07:31:27.094Z,-0.66
2023-01-23T07:33:55.636Z,-0.61
2023-01-23T07:36:27.654Z,-0.62
2023-01-23T07:38:59.314Z,-0.69
2023-01-23T07:41:28.035Z,-0.59
2023-01-23T07:43:57.344Z,-0.66
2023-01-23T07:46:26.226Z,-0.56
2023-01-23T07:48:57.094Z,-0.59
2023-01-23T07:51:27.282Z,-0.57
2023-01-23T07:53:55.784Z,-0.56
2023-01-23T07:56:24.350Z,-0.54
2023-01-23T07:58:54.791Z,-0.54
2023-01-23T08:01:26.849Z,-0.53
2023-01-23T08:03:55.921Z,-0.53
2023-01-23T08:06:24.142Z,-0.62
2023-01-23T08:08:56.341Z,-0.55
2023-01-23T08:11:26.711Z,-0.58
2023-01-23T08:13:58.101Z,-0.49
2023-01-23T08:16:27.393Z,-0.49
2023-01-23T08:18:56.399Z,-0.53
2023-01-23T08:21:25.410Z,-0.50
2023-01-23T08:23:56.232Z,-0.49
2023-01-23T08:26:24.691Z,-0.50
2023-01-23T08:28:53.694Z,-0.57
2023-01-23T08:31:22.276Z,-0.55
2023-01-23T08:33:51.037Z,-0.51
2023-01-23T08:36:19.935Z,-0.42
2023-01-23T08:38:49.442Z,-0.47
2023-01-23T08:41:19.943Z,-0.37
2023-01-23T08:43:49.071Z,-0.39
2023-01-23T08:46:18.747Z,-0.38
2023-01-23T08:48:48.600Z,-0.37
2023-01-23T08:51:17.304Z,-0.35
2023-01-23T08:53:47.742Z,-0.36
2023-01-23T08:56:18.381Z,-0.34
2023-01-23T08:58:49.207Z,-0.31
2023-01-23T09:01:22.186Z,-0.23
2023-01-23T09:03:52.199Z,-0.28
2023-01-23T09:06:24.214Z,-0.24
2023-01-23T09:08:52.953Z,-0.24
2023-01-23T09:11:22.831Z,-0.30
2023-01-23T09:13:54.147Z,-0.39
2023-01-23T09:16:23.717Z,-0.29
2023-01-23T09:18:52.427Z,-0.39
2023-01-23T09:21:21.017Z,-0.15
2023-01-23T09:23:49.843Z,-0.26
2023-01-23T09:26:20.050Z,-0.16
2023-01-23T09:28:48.852Z,-0.03
2023-01-23T09:31:20.615Z,0.02
2023-01-23T09:33:51.550Z,-0.02
2023-01-23T09:36:33.697Z,-0.07
2023-01-23T09:39:09.270Z,0.10
2023-01-23T09:41:39.487Z,0.17
2023-01-23T09:44:17.273Z,0.35
2023-01-23T09:46:52.077Z,0.26
2023-01-23T09:49:27.412Z,0.32
2023-01-23T09:52:00.875Z,0.27
2023-01-23T09:54:43.425Z,0.28
2023-01-23T09:57:18.111Z,0.30
2023-01-23T09:59:59.946Z,0.25
2023-01-23T10:02:31.618Z,0.35
2023-01-23T10:05:05.161Z,0.34
2023-01-23T10:07:51.045Z,0.33
2023-01-23T10:10:53.022Z,0.40
2023-01-23T10:13:35.594Z,0.46
2023-01-23T10:16:49.599Z,0.60
2023-01-23T10:19:36.041Z,0.60
2023-01-23T10:22:22.593Z,0.87
2023-01-23T10:24:55.741Z,1.00
2023-01-23T10:27:28.245Z,1.11
2023-01-23T10:30:01.670Z,0.91
2023-01-23T10:35:12.379Z,1.30
2023-01-23T10:37:47.401Z,1.17
2023-01-23T10:40:39.525Z,1.18
2023-01-23T10:43:16.198Z,1.07
2023-01-23T10:45:46.020Z,1.01
2023-01-23T10:48:39.780Z,1.07
2023-01-23T10:51:28.407Z,1.25
2023-01-23T10:54:26.001Z,1.18
2023-01-23T10:57:00.831Z,1.01
2023-01-23T10:59:37.533Z,1.14
2023-01-23T11:02:22.634Z,1.18
2023-01-23T11:04:53.863Z,1.34
2023-01-23T11:07:26.597Z,1.37
2023-01-23T11:09:57.406Z,1.50
2023-01-23T11:12:29.708Z,1.52
2023-01-23T11:15:22.119Z,1.68
2023-01-23T11:17:53.141Z,1.79
2023-01-23T11:20:28.459Z,1.85
2023-01-23T11:25:58.673Z,2.00
2023-01-23T11:28:31.125Z,1.94
2023-01-23T11:31:14.489Z,2.01
2023-01-23T11:33:53.370Z,1.76
2023-01-23T11:36:39.681Z,1.90
2023-01-23T11:39:21.860Z,1.76
2023-01-23T11:41:59.960Z,1.97
2023-01-23T11:44:44.999Z,2.03
2023-01-23T11:47:29.641Z,1.83
2023-01-23T11:50:21.611Z,1.91
2023-01-23T11:52:58.901Z,1.90
2023-01-23T11:55:58.307Z,1.93
2023-01-23T11:58:53.806Z,2.09
2023-01-23T12:01:31.476Z,1.94
2023-01-23T12:04:29.413Z,1.65
2023-01-23T12:07:15.448Z,1.58
2023-01-23T12:09:51.519Z,1.68
2023-01-23T12:12:30.433Z,1.44
2023-01-23T12:15:08.016Z,1.64
2023-01-23T12:17:47.763Z,1.86
2023-01-23T12:20:54.431Z,2.12
2023-01-23T12:23:33.122Z,2.32
2023-01-23T12:26:13.498Z,2.08
2023-01-23T12:29:18.883Z,2.14
2023-01-23T12:32:18.516Z,1.93
2023-01-23T12:35:11.111Z,1.95
2023-01-23T12:37:59.682Z,1.81
2023-01-23T12:40:35.666Z,1.80
2023-01-23T12:43:13.127Z,1.90
2023-01-23T12:45:49.292Z,1.84
2023-01-23T12:48:21.424Z,1.81
2023-01-23T12:50:58.411Z,1.71
2023-01-23T12:53:28.434Z,1.76
2023-01-23T12:56:04.713Z,1.72
2023-01-23T12:58:37.862Z,1.67
2023-01-23T13:01:28.573Z,1.89
2023-01-23T13:04:20.804Z,1.90
2023-01-23T13:07:05.977Z,1.89
2023-01-23T13:09:49.296Z,2.01
2023-01-23T13:12:22.984Z,2.04
2023-01-23T13:15:12.825Z,2.08
2023-01-23T13:17:49.509Z,2.08
2023-01-23T13:20:41.855Z,2.08
2023-01-23T13:23:34.623Z,2.23
2023-01-23T13:26:33.216Z,2.57
2023-01-23T13:29:07.735Z,2.61
2023-01-23T13:31:42.011Z,2.58
2023-01-23T13:34:38.992Z,2.87
2023-01-23T13:37:47.066Z,2.82
2023-01-23T13:40:20.747Z,2.78
2023-01-23T13:42:50.187Z,2.74
2023-01-23T13:45:34.444Z,2.65
2023-01-23T14:23:00.245Z,2.52
2023-01-23T14:25:28.728Z,2.48
2023-01-23T14:28:07.679Z,2.40
2023-01-23T14:30:39.817Z,2.46
2023-01-23T14:33:19.874Z,2.45
2023-01-23T14:35:50.596Z,2.50
2023-01-23T14:38:28.734Z,2.61
2023-01-23T14:40:59.359Z,2.62
2023-01-23T14:43:32.974Z,2.68
2023-01-23T14:46:20.915Z,2.73
2023-01-23T14:48:56.429Z,2.80
2023-01-23T14:51:27.835Z,2.76
2023-01-23T14:53:58.098Z,2.67
2023-01-23T14:56:31.244Z,2.65
2023-01-23T14:59:03.157Z,2.74
2023-01-23T15:01:37.823Z,2.71
2023-01-23T15:04:20.915Z,2.64
2023-01-23T15:06:55.539Z,2.50
2023-01-23T15:09:32.949Z,2.61
2023-01-23T15:12:08.270Z,2.58
2023-01-23T15:14:39.393Z,2.49
2023-01-23T15:17:17.013Z,2.47
2023-01-23T15:19:51.620Z,2.40
2023-01-23T15:22:22.471Z,2.30
2023-01-23T15:24:52.810Z,2.29
2023-01-23T15:27:32.453Z,2.12
2023-01-23T15:30:38.545Z,2.07
2023-01-23T15:33:27.139Z,1.91
2023-01-23T15:36:04.115Z,1.79
2023-01-23T15:38:33.142Z,1.70
2023-01-23T15:41:03.102Z,1.49
2023-01-23T15:43:33.131Z,1.51
2023-01-23T15:46:02.298Z,1.37
2023-01-23T15:48:34.100Z,1.46
2023-01-23T15:51:05.039Z,1.23
2023-01-23T15:53:34.275Z,1.33
2023-01-23T15:56:03.243Z,1.05
2023-01-23T15:58:34.632Z,1.11
2023-01-23T16:01:03.623Z,1.10
2023-01-23T16:03:33.571Z,1.11
2023-01-23T16:06:02.306Z,1.02
2023-01-23T16:08:33.047Z,0.98
2023-01-23T16:11:02.441Z,0.92
2023-01-23T16:13:31.335Z,0.98
2023-01-23T16:16:04.291Z,0.90
2023-01-23T16:18:34.548Z,0.99
2023-01-23T16:21:04.725Z,1.04
2023-01-23T16:23:46.746Z,1.01
2023-01-23T16:26:20.776Z,0.90
2023-01-23T16:28:49.028Z,1.04
2023-01-23T16:31:20.214Z,1.02
2023-01-23T16:33:52.992Z,1.08
2023-01-23T16:36:24.244Z,1.06
2023-01-23T16:38:57.091Z,1.10
2023-01-23T16:41:25.721Z,1.07
2023-01-23T16:43:56.351Z,1.02
2023-01-23T16:46:26.081Z,0.99
2023-01-23T16:48:57.155Z,0.97
2023-01-23T16:51:26.825Z,1.01
2023-01-23T16:54:03.845Z,0.99
2023-01-23T16:56:37.609Z,1.03
2023-01-23T16:59:07.209Z,0.97
2023-01-23T17:01:41.457Z,0.93
2023-01-23T17:04:14.351Z,0.89
2023-01-23T17:06:42.803Z,0.81
2023-01-23T17:09:12.763Z,0.82
2023-01-23T17:11:43.513Z,0.78
2023-01-23T17:14:17.168Z,0.82
2023-01-23T17:16:45.890Z,0.88
2023-01-23T17:19:24.399Z,0.85
2023-01-23T17:21:53.768Z,0.94
2023-01-23T17:24:23.052Z,1.09
2023-01-23T17:26:51.358Z,1.21
2023-01-23T17:29:20.919Z,1.26
2023-01-23T17:31:50.408Z,1.31
2023-01-23T17:34:24.327Z,1.34
2023-01-23T17:36:57.106Z,1.37
2023-01-23T17:39:28.422Z,1.33
2023-01-23T17:41:56.908Z,1.35
2023-01-23T17:44:25.031Z,1.35
2023-01-23T17:46:55.842Z,1.30
2023-01-23T17:49:31.732Z,1.31
2023-01-23T17:52:01.420Z,1.27
2023-01-23T17:54:33.214Z,1.29
2023-01-23T17:57:01.948Z,1.30
2023-01-23T17:59:32.513Z,1.34
2023-01-23T18:02:00.926Z,1.27
2023-01-23T18:04:31.098Z,1.28
2023-01-23T18:06:59.635Z,1.22
2023-01-23T18:09:28.404Z,1.18
2023-01-23T18:11:59.478Z,1.19
2023-01-23T18:14:43.852Z,1.10
2023-01-23T18:17:23.913Z,1.15
2023-01-23T18:19:55.197Z,1.23
2023-01-23T18:22:30.539Z,1.26
2023-01-23T18:25:09.839Z,1.33
2023-01-23T18:27:41.604Z,1.29
2023-01-23T18:30:37.617Z,1.34
2023-01-23T18:33:32.507Z,1.34
2023-01-23T18:36:36.375Z,1.36
2023-01-23T18:39:34.878Z,1.38
2023-01-23T18:42:16.688Z,1.37
2023-01-23T18:44:56.117Z,1.39
2023-01-23T18:47:25.814Z,1.45
2023-01-23T18:49:56.346Z,1.42
2023-01-23T18:52:38.428Z,1.47
2023-01-23T18:55:16.939Z,1.48
2023-01-23T18:57:59.583Z,1.40
2023-01-23T19:00:34.559Z,1.49
2023-01-23T19:03:12.251Z,1.44
2023-01-23T19:05:40.887Z,1.49
2023-01-23T19:08:28.350Z,1.47
2023-01-23T19:11:06.871Z,1.48
2023-01-23T19:13:44.294Z,1.47
2023-01-23T19:16:17.408Z,1.42
2023-01-23T19:18:50.439Z,1.49
2023-01-23T19:21:24.316Z,1.48
2023-01-23T19:23:59.504Z,1.49
2023-01-23T19:26:32.728Z,1.52
2023-01-23T19:29:19.062Z,1.55
2023-01-23T19:32:04.193Z,1.54
2023-01-23T19:34:36.087Z,1.54
2023-01-23T19:37:04.344Z,1.55
2023-01-23T19:39:33.507Z,1.52
2023-01-23T19:42:04.337Z,1.55
2023-01-23T19:44:34.230Z,1.55
2023-01-23T19:47:03.925Z,1.58
2023-01-23T19:49:32.584Z,1.58
2023-01-23T19:52:02.518Z,1.58
2023-01-23T19:54:32.133Z,1.52
2023-01-23T19:57:02.999Z,1.52
2023-01-23T19:59:33.393Z,1.57
2023-01-23T20:02:01.814Z,1.57
2023-01-23T20:04:30.401Z,1.60
2023-01-23T20:06:59.248Z,1.53
2023-01-23T20:09:28.571Z,1.57
2023-01-23T20:11:58.581Z,1.53
2023-01-23T20:14:29.933Z,1.58
2023-01-23T20:17:02.835Z,1.53
2023-01-23T20:19:31.926Z,1.42
2023-01-23T20:22:01.420Z,1.52
2023-01-23T20:24:30.218Z,1.42
2023-01-23T20:26:58.599Z,1.52
2023-01-23T20:29:28.028Z,1.52
2023-01-23T20:31:56.738Z,1.63
2023-01-23T20:34:27.248Z,1.59
2023-01-23T20:36:55.996Z,1.52
2023-01-23T20:39:25.643Z,1.54
2023-01-23T20:41:55.971Z,1.56
2023-01-23T20:44:25.701Z,1.52
2023-01-23T20:46:56.007Z,1.54
2023-01-23T20:49:25.305Z,1.49
2023-01-23T20:52:16.837Z,1.47
2023-01-23T20:54:45.348Z,1.51
2023-01-23T20:57:15.025Z,1.48
2023-01-23T20:59:42.347Z,1.52
2023-01-23T21:02:25.618Z,1.50
2023-01-23T21:04:54.694Z,1.49
2023-01-23T21:07:27.315Z,1.48
2023-01-23T21:09:58.066Z,1.52
2023-01-23T21:12:27.027Z,1.48
2023-01-23T21:14:55.920Z,1.51
2023-01-23T21:17:27.581Z,1.46
2023-01-23T21:19:56.121Z,1.48
2023-01-23T21:22:26.116Z,1.47
2023-01-23T21:24:55.308Z,1.39
2023-01-23T21:27:25.262Z,1.42
2023-01-23T21:29:55.232Z,1.43
2023-01-23T21:32:25.295Z,1.29
2023-01-23T21:34:53.665Z,1.32
2023-01-23T21:37:23.351Z,1.36
2023-01-23T21:39:53.685Z,1.39
2023-01-23T21:42:24.465Z,1.39
2023-01-23T21:44:55.576Z,1.39
2023-01-23T21:47:25.170Z,1.37
2023-01-23T21:49:56.241Z,1.36
2023-01-23T21:52:26.077Z,1.42
2023-01-23T21:54:56.903Z,1.37
2023-01-23T21:57:25.586Z,1.35
2023-01-23T22:00:07.577Z,1.39
2023-01-23T22:02:35.752Z,1.46
2023-01-23T22:05:03.852Z,1.41
2023-01-23T22:07:32.440Z,1.27
2023-01-23T22:10:02.787Z,1.32
2023-01-23T22:12:31.967Z,1.39
2023-01-23T22:15:00.334Z,1.40
2023-01-23T22:17:33.682Z,1.32
2023-01-23T22:20:05.280Z,1.34
2023-01-23T22:22:33.856Z,1.29
2023-01-23T22:25:07.173Z,1.33
2023-01-23T22:27:35.755Z,1.31
2023-01-23T22:30:04.857Z,1.34
2023-01-23T22:32:35.074Z,1.33
2023-01-23T22:35:03.670Z,1.42
2023-01-23T22:37:33.084Z,1.34
2023-01-23T22:40:01.297Z,1.38
2023-01-23T22:42:31.393Z,1.27
2023-01-23T22:44:59.365Z,1.28
2023-01-23T22:47:28.907Z,1.24
2023-01-23T22:49:57.062Z,1.34
2023-01-23T22:52:25.418Z,1.32
2023-01-23T22:54:53.806Z,1.27
2023-01-23T22:57:21.825Z,1.26
2023-01-23T22:59:52.006Z,1.28
2023-01-23T23:02:19.957Z,1.29
2023-01-23T23:04:49.931Z,1.23
2023-01-23T23:07:18.232Z,1.20
2023-01-23T23:09:46.439Z,1.26
2023-01-23T23:12:14.548Z,1.09
2023-01-23T23:14:42.616Z,1.27
2023-01-23T23:17:12.666Z,1.25
2023-01-23T23:19:40.766Z,1.21
2023-01-23T23:22:09.111Z,1.15
2023-01-23T23:24:37.709Z,1.24
2023-01-23T23:27:06.269Z,1.23
2023-01-23T23:29:34.519Z,1.24
2023-01-23T23:32:02.768Z,1.23
2023-01-23T23:34:32.778Z,1.18
2023-01-23T23:37:01.015Z,1.16
2023-01-23T23:39:29.355Z,1.25
2023-01-23T23:41:58.766Z,1.16
2023-01-23T23:44:27.073Z,0.98
2023-01-23T23:46:55.610Z,1.16
2023-01-23T23:49:24.100Z,1.17
2023-01-23T23:51:53.692Z,1.15
2023-01-23T23:54:21.878Z,1.17
2023-01-23T23:56:50.457Z,1.09
2023-01-23T23:59:18.943Z,1.10
